Weather at Hassi Messaoud-Oued Irara Krim Belkacem Airport

Public forecast

Using degrees Celsius for public forecast. Weather courtesy of forecast.io.

Current aviation weather report (METAR) for Hassi Messaoud-Oued Irara Krim Belkacem Airport

Report is more than 6 hours old.

2022/11/14 15:00 (retrieved 2 years ago)

DAUH 141500Z 23009KT CAVOK 26/05 Q1021

Aviation forecast (TAF) for Hassi Messaoud-Oued Irara Krim Belkacem Airport

Forecast is more than 12 hours old.

2023/02/22 18:33 (retrieved 1 year ago)

TAF DAUH 221700Z 2218/2318 20008KT CAVOK